createdAt,value
2022-08-20T00:00:00.636Z,58.22
2022-08-20T00:02:29.108Z,58.24
2022-08-20T00:04:57.533Z,58.34
2022-08-20T00:07:26.016Z,58.40
2022-08-20T00:09:56.030Z,58.51
2022-08-20T00:12:24.605Z,58.74
2022-08-20T00:14:53.124Z,58.84
2022-08-20T00:17:21.526Z,59.04
2022-08-20T00:19:50.070Z,59.18
2022-08-20T00:22:18.641Z,58.78
2022-08-20T00:24:47.493Z,58.74
2022-08-20T00:27:17.409Z,59.10
2022-08-20T00:29:45.937Z,59.07
2022-08-20T00:32:14.497Z,59.03
2022-08-20T00:34:43.246Z,58.60
2022-08-20T00:37:11.825Z,58.76
2022-08-20T00:39:40.463Z,58.47
2022-08-20T00:42:09.490Z,58.29
2022-08-20T00:44:46.572Z,57.97
2022-08-20T00:47:15.124Z,57.71
2022-08-20T00:49:45.646Z,57.72
2022-08-20T00:52:19.221Z,57.71
2022-08-20T00:54:51.197Z,57.76
2022-08-20T00:57:26.520Z,58.14
2022-08-20T00:59:58.347Z,58.14
2022-08-20T01:02:30.337Z,58.30
2022-08-20T01:04:59.408Z,58.41
2022-08-20T01:07:34.881Z,58.47
2022-08-20T01:10:08.048Z,58.65
2022-08-20T01:12:36.813Z,58.73
2022-08-20T01:15:12.091Z,58.52
2022-08-20T01:17:46.389Z,58.71
2022-08-20T01:20:18.584Z,58.96
2022-08-20T01:23:12.320Z,59.11
2022-08-20T01:25:47.078Z,59.14
2022-08-20T01:28:17.804Z,59.31
2022-08-20T01:30:46.805Z,59.41
2022-08-20T01:33:15.661Z,59.29
2022-08-20T01:35:45.348Z,59.39
2022-08-20T01:38:15.061Z,59.47
2022-08-20T01:40:59.798Z,59.35
2022-08-20T01:43:28.594Z,59.48
2022-08-20T01:46:01.799Z,59.38
2022-08-20T01:48:32.890Z,59.49
2022-08-20T01:51:07.112Z,59.89
2022-08-20T01:53:38.841Z,60.12
2022-08-20T01:56:12.112Z,60.06
2022-08-20T01:58:43.552Z,60.20
2022-08-20T02:01:21.647Z,60.35
2022-08-20T02:03:51.291Z,60.36
2022-08-20T02:06:20.136Z,60.75
2022-08-20T02:08:48.694Z,60.67
2022-08-20T02:13:49.758Z,60.46
2022-08-20T02:18:46.472Z,60.64
2022-08-20T02:21:14.956Z,60.52
2022-08-20T02:23:43.771Z,60.49
2022-08-20T02:26:12.275Z,60.47
2022-08-20T02:28:42.466Z,60.21
2022-08-20T02:31:10.986Z,60.36
2022-08-20T02:33:39.466Z,60.59
2022-08-20T02:36:09.165Z,60.66
2022-08-20T02:38:39.177Z,60.73
2022-08-20T02:41:08.375Z,60.42
2022-08-20T02:43:37.581Z,60.39
2022-08-20T02:46:09.116Z,60.14
2022-08-20T02:48:37.610Z,60.30
2022-08-20T02:51:08.009Z,60.25
2022-08-20T02:53:39.582Z,60.26
2022-08-20T02:56:09.449Z,60.16
2022-08-20T02:58:38.608Z,60.50
2022-08-20T03:01:12.711Z,60.14
2022-08-20T03:03:41.801Z,59.76
2022-08-20T03:06:12.593Z,58.97
2022-08-20T03:08:41.111Z,58.92
2022-08-20T03:11:09.628Z,59.10
2022-08-20T03:13:38.820Z,59.07
2022-08-20T03:16:09.418Z,59.09
2022-08-20T03:18:43.454Z,59.00
2022-08-20T03:21:14.855Z,58.78
2022-08-20T03:23:43.800Z,58.38
2022-08-20T03:26:14.330Z,58.45
2022-08-20T03:28:43.541Z,58.27
2022-08-20T03:31:15.491Z,57.92
2022-08-20T03:33:53.447Z,57.74
2022-08-20T03:36:28.519Z,57.93
2022-08-20T03:38:58.309Z,57.74
2022-08-20T03:41:27.392Z,57.66
2022-08-20T03:43:56.415Z,57.53
2022-08-20T03:46:27.085Z,57.64
2022-08-20T03:48:59.917Z,57.70
2022-08-20T03:51:28.968Z,58.18
2022-08-20T03:53:58.153Z,58.02
2022-08-20T03:56:26.953Z,58.05
2022-08-20T03:58:58.208Z,58.42
2022-08-20T04:01:45.416Z,58.43
2022-08-20T04:04:15.042Z,58.41
2022-08-20T04:06:44.424Z,58.52
2022-08-20T04:09:13.228Z,58.70
2022-08-20T04:11:41.832Z,59.21
2022-08-20T04:14:11.602Z,59.20
2022-08-20T04:16:48.851Z,59.41
2022-08-20T04:19:18.337Z,59.53
2022-08-20T04:21:49.057Z,59.71
2022-08-20T04:24:22.631Z,59.67
2022-08-20T04:27:00.649Z,59.62
2022-08-20T04:29:32.118Z,59.43
2022-08-20T04:32:05.878Z,59.36
2022-08-20T04:34:35.592Z,59.61
2022-08-20T04:37:04.745Z,59.86
2022-08-20T04:39:33.200Z,59.72
2022-08-20T04:42:00.763Z,59.96
2022-08-20T04:44:29.289Z,60.23
2022-08-20T04:46:58.092Z,60.06
2022-08-20T04:49:28.125Z,60.40
2022-08-20T04:51:56.861Z,60.54
2022-08-20T04:54:25.401Z,60.45
2022-08-20T04:56:54.244Z,60.60
2022-08-20T04:59:22.768Z,60.63
2022-08-20T05:01:52.024Z,60.80
2022-08-20T05:04:20.554Z,60.83
2022-08-20T05:06:51.404Z,60.76
2022-08-20T05:09:19.901Z,60.54
2022-08-20T05:11:48.764Z,60.83
2022-08-20T05:14:17.225Z,60.81
2022-08-20T05:16:45.685Z,61.06
2022-08-20T05:19:14.897Z,61.03
2022-08-20T05:21:43.353Z,61.10
2022-08-20T05:24:13.361Z,61.26
2022-08-20T05:26:41.982Z,61.04
2022-08-20T05:29:10.425Z,61.20
2022-08-20T05:31:39.589Z,61.38
2022-08-20T05:34:13.461Z,61.49
2022-08-20T05:36:45.017Z,61.70
2022-08-20T05:39:15.690Z,61.92
2022-08-20T05:41:44.196Z,61.53
2022-08-20T05:44:15.233Z,61.49
2022-08-20T05:46:44.934Z,61.33
2022-08-20T05:49:16.378Z,61.16
2022-08-20T05:51:45.289Z,61.36
2022-08-20T05:54:16.284Z,61.22
2022-08-20T05:56:45.775Z,61.31
2022-08-20T05:59:14.262Z,61.56
2022-08-20T06:01:44.236Z,61.57
2022-08-20T06:04:28.234Z,61.75
2022-08-20T06:06:59.833Z,61.83
2022-08-20T06:09:31.934Z,61.70
2022-08-20T06:12:02.813Z,61.97
2022-08-20T06:14:32.161Z,61.86
2022-08-20T06:17:08.182Z,61.83
2022-08-20T06:19:38.417Z,62.00
2022-08-20T06:22:17.557Z,61.68
2022-08-20T06:24:51.505Z,61.55
2022-08-20T06:27:20.497Z,61.72
2022-08-20T06:29:49.375Z,61.66
2022-08-20T06:32:19.974Z,61.70
2022-08-20T06:35:02.290Z,61.67
2022-08-20T06:37:32.433Z,61.69
2022-08-20T06:40:06.932Z,61.27
2022-08-20T06:42:36.201Z,61.13
2022-08-20T06:45:06.157Z,61.02
2022-08-20T06:47:35.710Z,60.93
2022-08-20T06:50:04.197Z,60.73
2022-08-20T06:52:52.315Z,60.62
2022-08-20T06:55:24.114Z,60.01
2022-08-20T06:57:59.721Z,59.90
2022-08-20T07:00:29.350Z,59.76
2022-08-20T07:02:58.215Z,59.22
2022-08-20T07:05:26.866Z,58.77
2022-08-20T07:07:55.939Z,58.66
2022-08-20T07:10:27.331Z,58.67
2022-08-20T07:12:57.622Z,58.34
2022-08-20T07:15:27.648Z,58.08
2022-08-20T07:18:01.405Z,57.52
2022-08-20T07:20:32.085Z,57.22
2022-08-20T07:23:01.248Z,57.01
2022-08-20T07:25:33.765Z,56.13
2022-08-20T07:28:04.445Z,55.90
2022-08-20T07:30:56.679Z,55.96
2022-08-20T07:33:28.579Z,55.68
2022-08-20T07:35:58.589Z,55.07
2022-08-20T07:38:30.786Z,54.42
2022-08-20T07:41:03.560Z,54.20
2022-08-20T07:43:35.239Z,54.05
2022-08-20T07:46:09.322Z,53.88
2022-08-20T07:48:40.648Z,53.84
2022-08-20T07:51:12.487Z,53.84
2022-08-20T07:53:42.158Z,53.54
2022-08-20T07:56:15.720Z,53.32
2022-08-20T07:58:50.323Z,53.48
2022-08-20T08:01:20.299Z,53.39
2022-08-20T08:03:50.722Z,53.23
2022-08-20T08:06:29.569Z,53.24
2022-08-20T08:09:01.262Z,52.94
2022-08-20T08:11:32.726Z,52.95
2022-08-20T08:14:01.733Z,52.87
2022-08-20T08:16:31.288Z,52.90
2022-08-20T08:19:02.305Z,53.21
2022-08-20T08:21:32.605Z,53.12
2022-08-20T08:24:01.626Z,53.12
2022-08-20T08:26:31.589Z,52.97
2022-08-20T08:29:00.252Z,52.94
2022-08-20T08:31:29.093Z,52.92
2022-08-20T08:33:57.824Z,53.10
2022-08-20T08:36:27.005Z,53.26
2022-08-20T08:38:56.769Z,53.43
2022-08-20T08:41:32.238Z,53.37
2022-08-20T08:44:08.428Z,53.41
2022-08-20T08:46:42.009Z,53.44
2022-08-20T08:49:12.039Z,53.66
2022-08-20T08:51:46.538Z,53.74
2022-08-20T08:54:18.039Z,53.81
2022-08-20T08:56:49.957Z,54.16
2022-08-20T08:59:21.909Z,54.10
2022-08-20T09:01:57.154Z,54.21
2022-08-20T09:04:31.978Z,54.15
2022-08-20T09:07:03.196Z,54.29
2022-08-20T09:09:34.366Z,54.35
2022-08-20T09:12:07.277Z,54.52
2022-08-20T09:14:37.409Z,54.51
2022-08-20T09:17:06.854Z,53.85
2022-08-20T09:19:35.424Z,54.21
2022-08-20T09:22:09.286Z,54.26
2022-08-20T09:24:38.136Z,54.03
2022-08-20T09:27:07.092Z,54.25
2022-08-20T09:29:37.482Z,54.39
2022-08-20T09:32:08.061Z,54.62
2022-08-20T09:34:39.661Z,54.61
2022-08-20T09:37:08.673Z,54.36
2022-08-20T09:39:37.931Z,54.40
2022-08-20T09:42:12.418Z,54.32
2022-08-20T09:44:43.147Z,53.94
2022-08-20T09:47:12.431Z,54.15
2022-08-20T09:49:42.023Z,54.13
2022-08-20T09:52:13.505Z,53.95
2022-08-20T09:54:46.608Z,53.82
2022-08-20T09:57:16.949Z,53.75
2022-08-20T09:59:58.017Z,53.77
2022-08-20T10:02:27.749Z,53.91
2022-08-20T10:04:56.645Z,53.73
2022-08-20T10:07:26.506Z,53.53
2022-08-20T10:09:55.709Z,53.54
2022-08-20T10:12:25.117Z,53.30
2022-08-20T10:14:55.899Z,53.25
2022-08-20T10:17:30.346Z,53.41
2022-08-20T10:19:58.994Z,53.88
2022-08-20T10:22:27.674Z,53.77
2022-08-20T10:24:56.476Z,53.91
2022-08-20T10:27:25.261Z,54.61
2022-08-20T10:29:55.345Z,55.83
2022-08-20T10:32:24.006Z,56.75
2022-08-20T10:34:52.814Z,57.61
2022-08-20T10:37:23.940Z,58.13
2022-08-20T10:39:53.194Z,58.67
2022-08-20T10:42:22.301Z,59.55
2022-08-20T10:44:51.352Z,60.25
2022-08-20T10:47:25.120Z,61.01
2022-08-20T10:49:56.590Z,61.07
2022-08-20T10:52:33.258Z,61.12
2022-08-20T10:55:04.446Z,61.50
2022-08-20T10:57:47.333Z,62.00
2022-08-20T11:00:18.934Z,62.14
2022-08-20T11:06:48.642Z,62.92
2022-08-20T11:09:18.248Z,63.15
2022-08-20T11:12:00.504Z,63.60
2022-08-20T11:14:30.557Z,62.77
2022-08-20T11:20:55.899Z,64.28
2022-08-20T11:23:28.655Z,64.01
2022-08-20T11:26:00.263Z,64.07
2022-08-20T11:28:38.277Z,63.79
2022-08-20T11:32:16.036Z,63.97
2022-08-20T11:34:45.135Z,63.67
2022-08-20T11:37:15.575Z,63.94
2022-08-20T11:39:46.597Z,63.71
2022-08-20T11:42:16.094Z,63.91
2022-08-20T11:44:45.692Z,63.53
2022-08-20T11:47:36.403Z,63.48
2022-08-20T11:50:09.077Z,63.31
2022-08-20T11:52:38.595Z,63.35
2022-08-20T11:57:59.877Z,62.85
2022-08-20T12:00:31.937Z,63.28
2022-08-20T12:03:02.671Z,62.93
2022-08-20T12:05:31.455Z,62.92
2022-08-20T12:08:03.115Z,63.19
2022-08-20T12:10:33.179Z,63.67
2022-08-20T12:13:04.669Z,64.06
2022-08-20T12:15:36.925Z,64.31
2022-08-20T12:18:13.823Z,64.36
2022-08-20T12:20:42.788Z,64.33
2022-08-20T12:23:11.533Z,64.22
2022-08-20T12:25:43.476Z,64.41
2022-08-20T12:28:17.024Z,64.33
2022-08-20T12:30:51.991Z,64.34
2022-08-20T12:33:20.962Z,64.08
2022-08-20T12:35:49.619Z,63.20
2022-08-20T12:38:18.429Z,62.70
2022-08-20T12:40:47.128Z,62.06
2022-08-20T12:43:18.908Z,61.60
2022-08-20T12:45:50.657Z,61.70
2022-08-20T12:48:21.109Z,61.95
2022-08-20T12:50:50.598Z,62.30
2022-08-20T12:53:19.174Z,62.25
2022-08-20T12:55:47.945Z,61.63
2022-08-20T12:58:19.271Z,61.29
2022-08-20T13:00:51.544Z,61.29
2022-08-20T13:03:21.582Z,61.61
2022-08-20T13:05:50.828Z,61.56
2022-08-20T13:08:19.707Z,61.82
2022-08-20T13:10:49.312Z,62.30
2022-08-20T13:13:21.279Z,62.09
2022-08-20T13:15:51.605Z,62.49
2022-08-20T13:18:20.632Z,63.23
2022-08-20T13:23:59.360Z,63.35
2022-08-20T13:26:28.170Z,63.68
2022-08-20T13:28:58.169Z,64.06
2022-08-20T13:31:26.933Z,64.40
2022-08-20T13:33:55.567Z,64.57
2022-08-20T13:36:24.173Z,64.49
2022-08-20T13:38:53.296Z,64.43
2022-08-20T13:41:21.947Z,64.40
2022-08-20T13:43:50.850Z,64.66
2022-08-20T13:46:21.192Z,64.30
2022-08-20T13:48:49.973Z,64.16
2022-08-20T13:51:19.052Z,62.82
2022-08-20T13:54:07.168Z,62.38
2022-08-20T13:57:12.108Z,62.47
2022-08-20T13:59:43.793Z,62.43
2022-08-20T14:02:15.668Z,61.84
2022-08-20T14:04:44.913Z,61.76
2022-08-20T14:07:15.869Z,61.42
2022-08-20T14:09:47.218Z,61.16
2022-08-20T14:12:17.151Z,60.59
2022-08-20T14:14:46.348Z,60.69
2022-08-20T14:17:39.216Z,60.77
2022-08-20T14:20:12.001Z,60.35
2022-08-20T14:22:42.152Z,60.49
2022-08-20T14:25:14.510Z,60.79
2022-08-20T14:27:45.687Z,60.71
2022-08-20T14:30:19.339Z,60.39
2022-08-20T14:32:50.155Z,60.58
2022-08-20T14:35:19.517Z,60.67
2022-08-20T14:37:50.337Z,60.76
2022-08-20T14:40:21.544Z,60.47
2022-08-20T14:42:51.653Z,60.67
2022-08-20T14:45:22.751Z,60.79
2022-08-20T14:47:55.489Z,60.16
2022-08-20T14:50:27.903Z,59.77
2022-08-20T14:53:00.406Z,60.04
2022-08-20T14:55:33.534Z,60.37
2022-08-20T14:58:03.206Z,60.55
2022-08-20T15:00:34.278Z,60.59
2022-08-20T15:03:04.669Z,60.90
2022-08-20T15:05:33.469Z,60.93
2022-08-20T15:08:02.481Z,60.98
2022-08-20T15:10:34.449Z,60.88
2022-08-20T15:13:03.249Z,61.20
2022-08-20T15:15:31.981Z,61.43
2022-08-20T15:18:01.681Z,61.27
2022-08-20T15:20:34.932Z,61.52
2022-08-20T15:23:15.619Z,62.26
2022-08-20T15:25:50.044Z,62.38
2022-08-20T15:28:26.364Z,62.83
2022-08-20T15:38:53.029Z,63.98
2022-08-20T15:41:21.605Z,64.01
2022-08-20T15:43:50.454Z,64.09
2022-08-20T15:48:55.365Z,64.36
2022-08-20T15:51:30.505Z,64.18
2022-08-20T15:54:03.424Z,64.34
2022-08-20T15:56:51.837Z,64.17
2022-08-20T15:59:59.044Z,63.33
2022-08-20T16:02:54.147Z,63.65
2022-08-20T16:05:29.251Z,63.28
2022-08-20T16:08:09.290Z,63.24
2022-08-20T16:10:49.580Z,63.92
2022-08-20T16:13:31.024Z,64.19
2022-08-20T16:16:04.051Z,63.92
2022-08-20T16:18:36.290Z,64.10
2022-08-20T16:21:10.928Z,64.72
2022-08-20T16:23:42.681Z,65.19
2022-08-20T16:26:28.043Z,65.25
2022-08-20T16:29:09.981Z,65.57
2022-08-20T16:31:48.767Z,66.00
2022-08-20T16:34:34.360Z,66.39
2022-08-20T16:37:12.894Z,66.84
2022-08-20T16:39:48.645Z,66.77
2022-08-20T16:42:24.951Z,66.71
2022-08-20T16:44:56.291Z,67.02
2022-08-20T16:47:30.118Z,66.97
2022-08-20T16:50:03.804Z,66.92
2022-08-20T16:52:32.327Z,66.85
2022-08-20T16:55:01.195Z,66.47
2022-08-20T16:57:31.537Z,66.34
2022-08-20T17:00:07.944Z,66.45
2022-08-20T17:02:36.596Z,66.48
2022-08-20T17:05:06.693Z,66.63
2022-08-20T17:15:57.121Z,67.36
2022-08-20T17:25:06.261Z,67.15
2022-08-20T17:27:48.646Z,66.61
2022-08-20T17:33:06.800Z,67.08
2022-08-20T17:35:41.953Z,67.34
2022-08-20T17:38:30.696Z,67.50
2022-08-20T17:41:01.966Z,67.32
2022-08-20T17:56:40.552Z,67.28
2022-08-20T18:22:32.743Z,67.00
2022-08-20T18:43:47.933Z,67.24
2022-08-20T18:49:00.600Z,67.31
2022-08-20T18:51:36.550Z,67.13
2022-08-20T19:02:58.296Z,67.32
2022-08-20T19:05:33.257Z,67.28
2022-08-20T19:16:07.487Z,67.56
2022-08-20T19:18:46.234Z,67.38
2022-08-20T19:21:18.352Z,67.45
2022-08-20T19:23:56.216Z,67.29
2022-08-20T19:26:38.310Z,67.14
2022-08-20T19:29:56.949Z,67.20
2022-08-20T19:33:06.844Z,67.47
2022-08-20T19:42:42.548Z,67.23
2022-08-20T19:45:35.786Z,67.60
2022-08-20T19:52:49.964Z,67.65
2022-08-20T20:00:05.162Z,67.77
2022-08-20T20:02:50.542Z,67.96
2022-08-20T20:05:51.349Z,67.70
2022-08-20T20:13:11.203Z,67.87
2022-08-20T20:15:48.456Z,68.22
2022-08-20T20:18:32.598Z,68.24
2022-08-20T20:21:17.289Z,67.95
2022-08-20T20:23:55.082Z,67.92
2022-08-20T20:26:26.285Z,68.02
2022-08-20T20:29:04.687Z,67.92
2022-08-20T20:31:44.038Z,68.14
2022-08-20T20:34:19.913Z,68.20
2022-08-20T20:36:49.948Z,68.16
2022-08-20T20:39:30.644Z,68.27
2022-08-20T20:42:02.910Z,67.92
2022-08-20T20:44:37.576Z,68.33
2022-08-20T20:47:18.600Z,68.43
2022-08-20T20:49:55.324Z,68.24
2022-08-20T20:52:35.443Z,68.33
2022-08-20T20:55:29.691Z,68.60
2022-08-20T20:58:39.730Z,68.48
2022-08-20T21:01:27.226Z,68.54
2022-08-20T21:08:38.271Z,68.58
2022-08-20T21:11:13.901Z,68.28
2022-08-20T21:29:47.932Z,68.64
2022-08-20T21:32:18.209Z,68.53
2022-08-20T21:34:47.296Z,68.53
2022-08-20T21:37:16.871Z,68.40
2022-08-20T21:39:46.179Z,68.48
2022-08-20T21:42:28.723Z,68.69
2022-08-20T21:45:00.259Z,68.82
2022-08-20T21:47:29.033Z,68.52
2022-08-20T21:49:57.953Z,68.63
2022-08-20T21:52:26.896Z,68.58
2022-08-20T21:54:55.834Z,68.77
2022-08-20T21:57:31.394Z,68.52
2022-08-20T22:00:16.669Z,68.52
2022-08-20T22:02:45.750Z,68.43
2022-08-20T22:05:16.686Z,68.56
2022-08-20T22:07:55.274Z,68.58
2022-08-20T22:10:23.955Z,68.52
2022-08-20T22:12:54.894Z,68.58
2022-08-20T22:15:27.445Z,68.58
2022-08-20T22:17:59.238Z,68.64
2022-08-20T22:20:31.888Z,68.42
2022-08-20T22:23:05.313Z,68.58
2022-08-20T22:25:35.270Z,68.88
2022-08-20T22:28:07.001Z,68.92
2022-08-20T22:30:42.133Z,68.79
2022-08-20T22:33:13.424Z,68.84
2022-08-20T22:35:47.324Z,68.58
2022-08-20T22:38:20.362Z,68.77
2022-08-20T22:40:58.131Z,68.78
2022-08-20T22:43:27.019Z,68.81
2022-08-20T22:46:02.919Z,68.86
2022-08-20T22:48:39.815Z,68.95
2022-08-20T22:51:08.568Z,68.90
2022-08-20T22:53:45.586Z,68.97
2022-08-20T22:56:21.639Z,68.90
2022-08-20T22:58:54.494Z,69.12
2022-08-20T23:01:27.286Z,69.08
2022-08-20T23:03:57.274Z,68.98
2022-08-20T23:06:31.429Z,69.04
2022-08-20T23:09:00.781Z,69.19
2022-08-20T23:11:29.953Z,69.22
2022-08-20T23:13:58.539Z,69.42
2022-08-20T23:16:30.163Z,69.39
2022-08-20T23:18:59.096Z,69.48
2022-08-20T23:21:28.075Z,69.36
2022-08-20T23:23:59.720Z,69.54
2022-08-20T23:26:29.691Z,69.52
2022-08-20T23:28:58.645Z,69.81
2022-08-20T23:31:27.776Z,69.54
2022-08-20T23:33:57.831Z,69.59
2022-08-20T23:36:27.089Z,69.80
2022-08-20T23:38:57.075Z,69.84
2022-08-20T23:41:26.081Z,69.45
2022-08-20T23:43:54.805Z,69.33
2022-08-20T23:46:27.541Z,69.09
2022-08-20T23:49:02.087Z,68.98
2022-08-20T23:51:33.739Z,69.21
2022-08-20T23:54:07.877Z,69.26
2022-08-20T23:56:36.618Z,69.26
2022-08-20T23:59:06.037Z,69.43
